sensor_id;sensor_type;location;lat;lon;timestamp;temperature;humidity
3756;DHT22;1893;52.526;13.360;2023-09-08T00:02:12;20.50;99.90
3756;DHT22;1893;52.526;13.360;2023-09-08T00:04:38;20.40;99.90
3756;DHT22;1893;52.526;13.360;2023-09-08T00:07:04;20.40;99.90
3756;DHT22;1893;52.526;13.360;2023-09-08T00:09:29;20.30;99.90
3756;DHT22;1893;52.526;13.360;2023-09-08T00:11:55;20.30;99.90
3756;DHT22;1893;52.526;13.360;2023-09-08T00:14:21;20.30;99.90
3756;DHT22;1893;52.526;13.360;2023-09-08T00:16:47;20.30;99.90
3756;DHT22;1893;52.526;13.360;2023-09-08T00:19:14;20.30;99.90
3756;DHT22;1893;52.526;13.360;2023-09-08T00:21:39;20.20;99.90
3756;DHT22;1893;52.526;13.360;2023-09-08T00:24:05;20.20;99.90
3756;DHT22;1893;52.526;13.360;2023-09-08T00:26:31;20.20;99.90
3756;DHT22;1893;52.526;13.360;2023-09-08T00:28:57;20.20;99.90
3756;DHT22;1893;52.526;13.360;2023-09-08T00:31:23;20.20;99.90
3756;DHT22;1893;52.526;13.360;2023-09-08T00:33:48;20.20;99.90
3756;DHT22;1893;52.526;13.360;2023-09-08T00:36:14;20.20;99.90
3756;DHT22;1893;52.526;13.360;2023-09-08T00:38:40;20.20;99.90
3756;DHT22;1893;52.526;13.360;2023-09-08T00:41:07;20.10;99.90
3756;DHT22;1893;52.526;13.360;2023-09-08T00:43:32;20.00;99.90
3756;DHT22;1893;52.526;13.360;2023-09-08T00:45:58;20.00;99.90
3756;DHT22;1893;52.526;13.360;2023-09-08T00:48:25;19.80;99.90
3756;DHT22;1893;52.526;13.360;2023-09-08T00:50:50;19.80;99.90
3756;DHT22;1893;52.526;13.360;2023-09-08T00:53:17;19.80;99.90
3756;DHT22;1893;52.526;13.360;2023-09-08T00:55:42;19.70;99.90
3756;DHT22;1893;52.526;13.360;2023-09-08T00:58:09;19.60;99.90
3756;DHT22;1893;52.526;13.360;2023-09-08T01:00:36;19.60;99.90
3756;DHT22;1893;52.526;13.360;2023-09-08T01:03:02;19.60;99.90
3756;DHT22;1893;52.526;13.360;2023-09-08T01:05:28;19.60;99.90
3756;DHT22;1893;52.526;13.360;2023-09-08T01:07:54;19.50;99.90
3756;DHT22;1893;52.526;13.360;2023-09-08T01:10:21;19.50;99.90
3756;DHT22;1893;52.526;13.360;2023-09-08T01:12:46;19.50;99.90
3756;DHT22;1893;52.526;13.360;2023-09-08T01:15:12;19.40;99.90
3756;DHT22;1893;52.526;13.360;2023-09-08T01:17:38;19.50;99.90
3756;DHT22;1893;52.526;13.360;2023-09-08T01:20:09;19.40;99.90
3756;DHT22;1893;52.526;13.360;2023-09-08T01:23:09;19.40;99.90
3756;DHT22;1893;52.526;13.360;2023-09-08T01:25:40;19.40;99.90
3756;DHT22;1893;52.526;13.360;2023-09-08T01:28:08;19.50;99.90
3756;DHT22;1893;52.526;13.360;2023-09-08T01:30:35;19.50;99.90
3756;DHT22;1893;52.526;13.360;2023-09-08T01:33:01;19.40;99.90
3756;DHT22;1893;52.526;13.360;2023-09-08T01:35:27;19.20;99.90
3756;DHT22;1893;52.526;13.360;2023-09-08T01:37:53;19.40;99.90
3756;DHT22;1893;52.526;13.360;2023-09-08T01:40:19;19.30;99.90
3756;DHT22;1893;52.526;13.360;2023-09-08T01:42:45;19.30;99.90
3756;DHT22;1893;52.526;13.360;2023-09-08T01:45:10;19.30;99.90
3756;DHT22;1893;52.526;13.360;2023-09-08T01:47:36;19.30;99.90
3756;DHT22;1893;52.526;13.360;2023-09-08T01:50:03;19.30;99.90
3756;DHT22;1893;52.526;13.360;2023-09-08T01:52:28;19.40;99.90
3756;DHT22;1893;52.526;13.360;2023-09-08T01:54:54;19.40;99.90
3756;DHT22;1893;52.526;13.360;2023-09-08T01:57:20;19.50;99.90
3756;DHT22;1893;52.526;13.360;2023-09-08T01:59:45;19.50;99.90
3756;DHT22;1893;52.526;13.360;2023-09-08T02:02:11;19.50;99.90
3756;DHT22;1893;52.526;13.360;2023-09-08T02:04:37;19.60;99.90
3756;DHT22;1893;52.526;13.360;2023-09-08T02:07:03;19.70;99.90
3756;DHT22;1893;52.526;13.360;2023-09-08T02:09:34;19.70;99.90
3756;DHT22;1893;52.526;13.360;2023-09-08T02:12:00;19.80;99.90
3756;DHT22;1893;52.526;13.360;2023-09-08T02:14:26;19.70;99.90
3756;DHT22;1893;52.526;13.360;2023-09-08T02:16:53;19.70;99.90
3756;DHT22;1893;52.526;13.360;2023-09-08T02:19:19;19.70;99.90
3756;DHT22;1893;52.526;13.360;2023-09-08T02:21:45;19.70;99.90
3756;DHT22;1893;52.526;13.360;2023-09-08T02:24:10;19.70;99.90
3756;DHT22;1893;52.526;13.360;2023-09-08T02:26:37;19.60;99.90
3756;DHT22;1893;52.526;13.360;2023-09-08T02:29:03;19.60;99.90
3756;DHT22;1893;52.526;13.360;2023-09-08T02:31:28;19.60;99.90
3756;DHT22;1893;52.526;13.360;2023-09-08T02:33:54;19.70;99.90
3756;DHT22;1893;52.526;13.360;2023-09-08T02:36:19;19.60;99.90
3756;DHT22;1893;52.526;13.360;2023-09-08T02:38:54;19.70;99.90
3756;DHT22;1893;52.526;13.360;2023-09-08T02:41:20;19.60;99.90
3756;DHT22;1893;52.526;13.360;2023-09-08T02:43:46;19.60;99.90
3756;DHT22;1893;52.526;13.360;2023-09-08T02:46:12;19.60;99.90
3756;DHT22;1893;52.526;13.360;2023-09-08T02:48:38;19.50;99.90
3756;DHT22;1893;52.526;13.360;2023-09-08T02:51:03;19.50;99.90
3756;DHT22;1893;52.526;13.360;2023-09-08T02:53:29;19.50;99.90
3756;DHT22;1893;52.526;13.360;2023-09-08T02:55:56;19.50;99.90
3756;DHT22;1893;52.526;13.360;2023-09-08T02:58:22;19.40;99.90
3756;DHT22;1893;52.526;13.360;2023-09-08T03:00:48;19.40;99.90
3756;DHT22;1893;52.526;13.360;2023-09-08T03:03:13;19.30;99.90
3756;DHT22;1893;52.526;13.360;2023-09-08T03:05:39;19.30;99.90
3756;DHT22;1893;52.526;13.360;2023-09-08T03:08:05;19.30;99.90
3756;DHT22;1893;52.526;13.360;2023-09-08T03:10:31;19.30;99.90
3756;DHT22;1893;52.526;13.360;2023-09-08T03:13:00;19.20;99.90
3756;DHT22;1893;52.526;13.360;2023-09-08T03:15:26;19.30;99.90
3756;DHT22;1893;52.526;13.360;2023-09-08T03:17:54;19.30;99.90
3756;DHT22;1893;52.526;13.360;2023-09-08T03:20:20;19.20;99.90
3756;DHT22;1893;52.526;13.360;2023-09-08T03:22:46;19.20;99.90
3756;DHT22;1893;52.526;13.360;2023-09-08T03:25:16;19.20;99.90
3756;DHT22;1893;52.526;13.360;2023-09-08T03:27:42;19.10;99.90
3756;DHT22;1893;52.526;13.360;2023-09-08T03:30:07;19.10;99.90
3756;DHT22;1893;52.526;13.360;2023-09-08T03:32:34;19.10;99.90
3756;DHT22;1893;52.526;13.360;2023-09-08T03:34:59;19.00;99.90
3756;DHT22;1893;52.526;13.360;2023-09-08T03:37:25;19.00;99.90
3756;DHT22;1893;52.526;13.360;2023-09-08T03:39:52;19.00;99.90
3756;DHT22;1893;52.526;13.360;2023-09-08T03:42:18;19.00;99.90
3756;DHT22;1893;52.526;13.360;2023-09-08T03:44:44;18.90;99.90
3756;DHT22;1893;52.526;13.360;2023-09-08T03:47:09;18.90;99.90
3756;DHT22;1893;52.526;13.360;2023-09-08T03:49:35;18.90;99.90
3756;DHT22;1893;52.526;13.360;2023-09-08T03:52:01;18.90;99.90
3756;DHT22;1893;52.526;13.360;2023-09-08T03:54:27;18.90;99.90
3756;DHT22;1893;52.526;13.360;2023-09-08T03:56:52;18.90;99.90
3756;DHT22;1893;52.526;13.360;2023-09-08T03:59:18;18.90;99.90
3756;DHT22;1893;52.526;13.360;2023-09-08T04:01:44;18.90;99.90
3756;DHT22;1893;52.526;13.360;2023-09-08T04:04:09;18.90;99.90
3756;DHT22;1893;52.526;13.360;2023-09-08T04:06:35;18.80;99.90
3756;DHT22;1893;52.526;13.360;2023-09-08T04:09:00;18.90;99.90
3756;DHT22;1893;52.526;13.360;2023-09-08T04:11:26;18.80;99.90
3756;DHT22;1893;52.526;13.360;2023-09-08T04:13:52;18.80;99.90
3756;DHT22;1893;52.526;13.360;2023-09-08T04:16:17;18.70;99.90
3756;DHT22;1893;52.526;13.360;2023-09-08T04:18:43;18.70;99.90
3756;DHT22;1893;52.526;13.360;2023-09-08T04:21:10;18.70;99.90
3756;DHT22;1893;52.526;13.360;2023-09-08T04:23:35;18.70;99.90
3756;DHT22;1893;52.526;13.360;2023-09-08T04:26:01;18.70;99.90
3756;DHT22;1893;52.526;13.360;2023-09-08T04:28:27;18.60;99.90
3756;DHT22;1893;52.526;13.360;2023-09-08T04:30:54;18.60;99.90
3756;DHT22;1893;52.526;13.360;2023-09-08T04:33:19;18.60;99.90
3756;DHT22;1893;52.526;13.360;2023-09-08T04:35:45;18.60;99.90
3756;DHT22;1893;52.526;13.360;2023-09-08T04:38:10;18.60;99.90
3756;DHT22;1893;52.526;13.360;2023-09-08T04:40:39;18.50;99.90
3756;DHT22;1893;52.526;13.360;2023-09-08T04:43:06;18.40;99.90
3756;DHT22;1893;52.526;13.360;2023-09-08T04:45:32;18.50;99.90
3756;DHT22;1893;52.526;13.360;2023-09-08T04:47:57;18.40;99.90
3756;DHT22;1893;52.526;13.360;2023-09-08T04:50:23;18.50;99.90
3756;DHT22;1893;52.526;13.360;2023-09-08T04:52:48;18.50;99.90
3756;DHT22;1893;52.526;13.360;2023-09-08T04:55:14;18.50;99.90
3756;DHT22;1893;52.526;13.360;2023-09-08T04:57:40;18.50;99.90
3756;DHT22;1893;52.526;13.360;2023-09-08T05:00:06;18.50;99.90
3756;DHT22;1893;52.526;13.360;2023-09-08T05:02:32;18.50;99.90
3756;DHT22;1893;52.526;13.360;2023-09-08T05:04:57;18.50;99.90
3756;DHT22;1893;52.526;13.360;2023-09-08T05:07:25;18.50;99.90
3756;DHT22;1893;52.526;13.360;2023-09-08T05:09:50;18.50;99.90
3756;DHT22;1893;52.526;13.360;2023-09-08T05:12:16;18.50;99.90
3756;DHT22;1893;52.526;13.360;2023-09-08T05:14:42;18.60;99.90
3756;DHT22;1893;52.526;13.360;2023-09-08T05:17:07;18.50;99.90
3756;DHT22;1893;52.526;13.360;2023-09-08T05:19:33;18.50;99.90
3756;DHT22;1893;52.526;13.360;2023-09-08T05:21:59;18.60;99.90
3756;DHT22;1893;52.526;13.360;2023-09-08T05:24:24;18.60;99.90
3756;DHT22;1893;52.526;13.360;2023-09-08T05:26:52;18.70;99.90
3756;DHT22;1893;52.526;13.360;2023-09-08T05:29:17;18.70;99.90
3756;DHT22;1893;52.526;13.360;2023-09-08T05:31:43;18.70;99.90
3756;DHT22;1893;52.526;13.360;2023-09-08T05:34:09;18.60;99.90
3756;DHT22;1893;52.526;13.360;2023-09-08T05:36:35;18.70;99.90
3756;DHT22;1893;52.526;13.360;2023-09-08T05:39:04;18.80;99.90
3756;DHT22;1893;52.526;13.360;2023-09-08T05:41:30;18.80;99.90
3756;DHT22;1893;52.526;13.360;2023-09-08T05:43:57;18.90;99.90
3756;DHT22;1893;52.526;13.360;2023-09-08T05:46:23;18.90;99.90
3756;DHT22;1893;52.526;13.360;2023-09-08T05:48:48;18.90;99.90
3756;DHT22;1893;52.526;13.360;2023-09-08T05:51:14;18.90;99.90
3756;DHT22;1893;52.526;13.360;2023-09-08T05:53:40;18.80;99.90
3756;DHT22;1893;52.526;13.360;2023-09-08T05:56:06;18.90;99.90
3756;DHT22;1893;52.526;13.360;2023-09-08T05:58:32;19.00;99.90
3756;DHT22;1893;52.526;13.360;2023-09-08T06:01:02;19.00;99.90
3756;DHT22;1893;52.526;13.360;2023-09-08T06:03:28;19.10;99.90
3756;DHT22;1893;52.526;13.360;2023-09-08T06:05:54;19.20;99.90
3756;DHT22;1893;52.526;13.360;2023-09-08T06:08:19;19.20;99.90
3756;DHT22;1893;52.526;13.360;2023-09-08T06:10:45;19.20;99.90
3756;DHT22;1893;52.526;13.360;2023-09-08T06:13:10;19.20;99.90
3756;DHT22;1893;52.526;13.360;2023-09-08T06:15:36;19.30;99.90
3756;DHT22;1893;52.526;13.360;2023-09-08T06:18:02;19.40;99.90
3756;DHT22;1893;52.526;13.360;2023-09-08T06:20:28;19.50;99.90
3756;DHT22;1893;52.526;13.360;2023-09-08T06:22:54;19.60;99.90
3756;DHT22;1893;52.526;13.360;2023-09-08T06:25:20;19.50;99.90
3756;DHT22;1893;52.526;13.360;2023-09-08T06:27:46;19.60;99.90
3756;DHT22;1893;52.526;13.360;2023-09-08T06:30:11;19.70;99.90
3756;DHT22;1893;52.526;13.360;2023-09-08T06:32:39;19.70;99.90
3756;DHT22;1893;52.526;13.360;2023-09-08T06:35:05;19.70;99.90
3756;DHT22;1893;52.526;13.360;2023-09-08T06:37:38;19.80;99.90
3756;DHT22;1893;52.526;13.360;2023-09-08T06:40:04;19.90;99.90
3756;DHT22;1893;52.526;13.360;2023-09-08T06:42:30;20.00;99.90
3756;DHT22;1893;52.526;13.360;2023-09-08T06:44:56;20.20;99.90
3756;DHT22;1893;52.526;13.360;2023-09-08T06:47:22;20.40;99.90
3756;DHT22;1893;52.526;13.360;2023-09-08T06:49:47;20.60;99.90
3756;DHT22;1893;52.526;13.360;2023-09-08T06:52:13;21.10;99.90
3756;DHT22;1893;52.526;13.360;2023-09-08T06:54:38;21.50;99.90
3756;DHT22;1893;52.526;13.360;2023-09-08T06:57:04;21.80;99.90
3756;DHT22;1893;52.526;13.360;2023-09-08T06:59:30;22.00;99.90
3756;DHT22;1893;52.526;13.360;2023-09-08T07:01:55;22.00;99.90
3756;DHT22;1893;52.526;13.360;2023-09-08T07:04:21;21.60;99.90
3756;DHT22;1893;52.526;13.360;2023-09-08T07:06:47;21.40;99.90
3756;DHT22;1893;52.526;13.360;2023-09-08T07:09:12;21.50;99.90
3756;DHT22;1893;52.526;13.360;2023-09-08T07:11:38;21.40;99.90
3756;DHT22;1893;52.526;13.360;2023-09-08T07:14:04;21.30;99.90
3756;DHT22;1893;52.526;13.360;2023-09-08T07:16:30;21.30;99.90
3756;DHT22;1893;52.526;13.360;2023-09-08T07:18:55;21.40;99.90
3756;DHT22;1893;52.526;13.360;2023-09-08T07:21:21;21.70;99.90
3756;DHT22;1893;52.526;13.360;2023-09-08T07:23:46;21.80;99.90
3756;DHT22;1893;52.526;13.360;2023-09-08T07:26:12;21.90;99.90
3756;DHT22;1893;52.526;13.360;2023-09-08T07:28:38;22.00;99.90
3756;DHT22;1893;52.526;13.360;2023-09-08T07:31:05;22.00;99.90
3756;DHT22;1893;52.526;13.360;2023-09-08T07:33:31;22.10;99.90
3756;DHT22;1893;52.526;13.360;2023-09-08T07:35:57;22.20;99.90
3756;DHT22;1893;52.526;13.360;2023-09-08T07:38:23;22.30;99.90
3756;DHT22;1893;52.526;13.360;2023-09-08T07:40:48;22.40;99.90
3756;DHT22;1893;52.526;13.360;2023-09-08T07:43:14;22.80;99.90
3756;DHT22;1893;52.526;13.360;2023-09-08T07:45:39;22.80;99.90
3756;DHT22;1893;52.526;13.360;2023-09-08T07:48:06;22.90;99.90
3756;DHT22;1893;52.526;13.360;2023-09-08T07:50:32;22.90;99.90
3756;DHT22;1893;52.526;13.360;2023-09-08T07:52:57;22.90;99.90
3756;DHT22;1893;52.526;13.360;2023-09-08T07:55:24;23.00;99.90
3756;DHT22;1893;52.526;13.360;2023-09-08T07:57:53;23.00;99.90
3756;DHT22;1893;52.526;13.360;2023-09-08T08:00:19;23.30;99.90
3756;DHT22;1893;52.526;13.360;2023-09-08T08:02:50;23.40;99.90
3756;DHT22;1893;52.526;13.360;2023-09-08T08:05:16;23.40;99.90
3756;DHT22;1893;52.526;13.360;2023-09-08T08:07:43;23.50;99.90
3756;DHT22;1893;52.526;13.360;2023-09-08T08:10:10;23.60;99.90
3756;DHT22;1893;52.526;13.360;2023-09-08T08:12:36;24.00;99.90
3756;DHT22;1893;52.526;13.360;2023-09-08T08:15:02;24.40;99.90
3756;DHT22;1893;52.526;13.360;2023-09-08T08:17:28;24.50;99.90
3756;DHT22;1893;52.526;13.360;2023-09-08T08:19:55;25.00;99.90
3756;DHT22;1893;52.526;13.360;2023-09-08T08:22:21;25.10;99.90
3756;DHT22;1893;52.526;13.360;2023-09-08T08:24:47;25.40;99.90
3756;DHT22;1893;52.526;13.360;2023-09-08T08:27:12;25.50;99.90
3756;DHT22;1893;52.526;13.360;2023-09-08T08:29:39;25.50;99.90
3756;DHT22;1893;52.526;13.360;2023-09-08T08:32:05;25.40;99.90
3756;DHT22;1893;52.526;13.360;2023-09-08T08:34:31;25.10;99.90
3756;DHT22;1893;52.526;13.360;2023-09-08T08:36:56;25.30;99.90
3756;DHT22;1893;52.526;13.360;2023-09-08T08:39:22;25.20;99.90
3756;DHT22;1893;52.526;13.360;2023-09-08T08:41:48;25.30;99.90
3756;DHT22;1893;52.526;13.360;2023-09-08T08:44:15;25.40;99.90
3756;DHT22;1893;52.526;13.360;2023-09-08T08:46:43;25.30;99.90
3756;DHT22;1893;52.526;13.360;2023-09-08T08:49:11;25.20;99.90
3756;DHT22;1893;52.526;13.360;2023-09-08T08:51:39;25.20;99.90
3756;DHT22;1893;52.526;13.360;2023-09-08T08:54:07;25.30;99.90
3756;DHT22;1893;52.526;13.360;2023-09-08T08:56:35;25.20;99.90
3756;DHT22;1893;52.526;13.360;2023-09-08T08:59:01;25.20;99.90
3756;DHT22;1893;52.526;13.360;2023-09-08T09:01:28;25.30;99.90
3756;DHT22;1893;52.526;13.360;2023-09-08T09:03:55;25.10;99.90
3756;DHT22;1893;52.526;13.360;2023-09-08T09:06:21;25.20;99.90
3756;DHT22;1893;52.526;13.360;2023-09-08T09:08:47;25.30;99.90
3756;DHT22;1893;52.526;13.360;2023-09-08T09:11:12;25.50;99.90
3756;DHT22;1893;52.526;13.360;2023-09-08T09:13:38;25.60;99.90
3756;DHT22;1893;52.526;13.360;2023-09-08T09:16:05;26.00;99.90
3756;DHT22;1893;52.526;13.360;2023-09-08T09:18:56;26.20;99.90
3756;DHT22;1893;52.526;13.360;2023-09-08T09:21:22;26.40;99.90
3756;DHT22;1893;52.526;13.360;2023-09-08T09:23:48;26.80;99.90
3756;DHT22;1893;52.526;13.360;2023-09-08T09:26:24;27.20;99.90
3756;DHT22;1893;52.526;13.360;2023-09-08T09:28:50;27.40;99.90
3756;DHT22;1893;52.526;13.360;2023-09-08T09:31:18;27.40;99.90
3756;DHT22;1893;52.526;13.360;2023-09-08T09:33:44;27.30;99.90
3756;DHT22;1893;52.526;13.360;2023-09-08T09:36:20;27.30;99.90
3756;DHT22;1893;52.526;13.360;2023-09-08T09:38:47;27.10;99.90
3756;DHT22;1893;52.526;13.360;2023-09-08T09:41:12;27.10;99.90
3756;DHT22;1893;52.526;13.360;2023-09-08T09:43:38;27.20;99.90
3756;DHT22;1893;52.526;13.360;2023-09-08T09:46:07;27.30;99.90
3756;DHT22;1893;52.526;13.360;2023-09-08T09:48:35;27.40;99.90
3756;DHT22;1893;52.526;13.360;2023-09-08T09:51:15;27.50;99.90
3756;DHT22;1893;52.526;13.360;2023-09-08T09:53:42;27.50;99.90
3756;DHT22;1893;52.526;13.360;2023-09-08T09:56:08;27.50;99.90
3756;DHT22;1893;52.526;13.360;2023-09-08T09:58:35;27.50;99.90
3756;DHT22;1893;52.526;13.360;2023-09-08T10:01:02;27.50;99.90
3756;DHT22;1893;52.526;13.360;2023-09-08T10:03:29;27.70;99.90
3756;DHT22;1893;52.526;13.360;2023-09-08T10:05:56;28.00;99.90
3756;DHT22;1893;52.526;13.360;2023-09-08T10:08:22;28.40;99.90
3756;DHT22;1893;52.526;13.360;2023-09-08T10:10:48;28.60;99.90
3756;DHT22;1893;52.526;13.360;2023-09-08T10:13:21;28.90;99.90
3756;DHT22;1893;52.526;13.360;2023-09-08T10:15:48;28.50;99.90
3756;DHT22;1893;52.526;13.360;2023-09-08T10:18:16;28.90;99.90
3756;DHT22;1893;52.526;13.360;2023-09-08T10:20:45;29.40;99.90
3756;DHT22;1893;52.526;13.360;2023-09-08T10:23:35;30.50;99.90
3756;DHT22;1893;52.526;13.360;2023-09-08T10:26:04;31.80;99.90
3756;DHT22;1893;52.526;13.360;2023-09-08T10:28:32;32.10;99.90
3756;DHT22;1893;52.526;13.360;2023-09-08T10:30:59;32.40;99.90
3756;DHT22;1893;52.526;13.360;2023-09-08T10:33:25;33.20;99.20
3756;DHT22;1893;52.526;13.360;2023-09-08T10:35:52;33.10;97.70
3756;DHT22;1893;52.526;13.360;2023-09-08T10:38:27;33.30;96.70
3756;DHT22;1893;52.526;13.360;2023-09-08T10:41:26;33.90;95.70
3756;DHT22;1893;52.526;13.360;2023-09-08T10:43:39;34.10;93.50
3756;DHT22;1893;52.526;13.360;2023-09-08T10:46:28;34.40;92.80
3756;DHT22;1893;52.526;13.360;2023-09-08T10:48:56;34.80;90.70
3756;DHT22;1893;52.526;13.360;2023-09-08T10:51:25;34.40;90.10
3756;DHT22;1893;52.526;13.360;2023-09-08T10:53:51;35.00;87.90
3756;DHT22;1893;52.526;13.360;2023-09-08T10:56:17;35.00;84.90
3756;DHT22;1893;52.526;13.360;2023-09-08T10:58:51;34.50;83.80
3756;DHT22;1893;52.526;13.360;2023-09-08T11:01:21;34.80;82.80
3756;DHT22;1893;52.526;13.360;2023-09-08T11:03:54;34.50;80.60
3756;DHT22;1893;52.526;13.360;2023-09-08T11:06:21;34.80;81.20
3756;DHT22;1893;52.526;13.360;2023-09-08T11:08:55;35.00;76.90
3756;DHT22;1893;52.526;13.360;2023-09-08T11:11:21;34.50;77.70
3756;DHT22;1893;52.526;13.360;2023-09-08T11:13:47;34.60;77.70
3756;DHT22;1893;52.526;13.360;2023-09-08T11:16:16;34.50;76.60
3756;DHT22;1893;52.526;13.360;2023-09-08T11:18:46;33.90;77.20
3756;DHT22;1893;52.526;13.360;2023-09-08T11:21:12;33.50;76.60
3756;DHT22;1893;52.526;13.360;2023-09-08T11:23:38;33.00;77.30
3756;DHT22;1893;52.526;13.360;2023-09-08T11:26:04;32.70;76.60
3756;DHT22;1893;52.526;13.360;2023-09-08T11:28:31;32.40;78.40
3756;DHT22;1893;52.526;13.360;2023-09-08T11:30:57;32.10;78.10
3756;DHT22;1893;52.526;13.360;2023-09-08T11:33:23;31.40;80.50
3756;DHT22;1893;52.526;13.360;2023-09-08T11:35:51;31.00;83.10
3756;DHT22;1893;52.526;13.360;2023-09-08T11:38:17;30.90;81.10
3756;DHT22;1893;52.526;13.360;2023-09-08T11:40:43;30.50;81.50
3756;DHT22;1893;52.526;13.360;2023-09-08T11:43:09;30.20;84.40
3756;DHT22;1893;52.526;13.360;2023-09-08T11:45:35;30.00;85.20
3756;DHT22;1893;52.526;13.360;2023-09-08T11:48:02;29.90;83.90
3756;DHT22;1893;52.526;13.360;2023-09-08T11:50:29;30.00;84.10
3756;DHT22;1893;52.526;13.360;2023-09-08T11:52:55;30.00;83.40
3756;DHT22;1893;52.526;13.360;2023-09-08T11:55:22;30.00;85.80
3756;DHT22;1893;52.526;13.360;2023-09-08T11:57:50;29.80;84.00
3756;DHT22;1893;52.526;13.360;2023-09-08T12:00:20;29.80;85.10
3756;DHT22;1893;52.526;13.360;2023-09-08T12:02:48;29.60;84.30
3756;DHT22;1893;52.526;13.360;2023-09-08T12:05:24;29.50;86.70
3756;DHT22;1893;52.526;13.360;2023-09-08T12:07:51;29.70;86.10
3756;DHT22;1893;52.526;13.360;2023-09-08T12:10:17;29.80;83.60
3756;DHT22;1893;52.526;13.360;2023-09-08T12:12:50;29.60;84.80
3756;DHT22;1893;52.526;13.360;2023-09-08T12:15:35;29.60;84.40
3756;DHT22;1893;52.526;13.360;2023-09-08T12:18:03;29.80;84.00
3756;DHT22;1893;52.526;13.360;2023-09-08T12:20:30;30.10;85.40
3756;DHT22;1893;52.526;13.360;2023-09-08T12:22:59;30.20;85.00
3756;DHT22;1893;52.526;13.360;2023-09-08T12:25:26;30.10;83.40
3756;DHT22;1893;52.526;13.360;2023-09-08T12:27:53;30.00;81.70
3756;DHT22;1893;52.526;13.360;2023-09-08T12:30:20;30.00;81.70
3756;DHT22;1893;52.526;13.360;2023-09-08T12:32:48;29.90;81.90
3756;DHT22;1893;52.526;13.360;2023-09-08T12:35:22;29.90;82.10
3756;DHT22;1893;52.526;13.360;2023-09-08T12:38:05;29.90;83.00
3756;DHT22;1893;52.526;13.360;2023-09-08T12:40:34;29.80;82.20
3756;DHT22;1893;52.526;13.360;2023-09-08T12:43:00;30.00;82.60
3756;DHT22;1893;52.526;13.360;2023-09-08T12:45:27;30.10;81.90
3756;DHT22;1893;52.526;13.360;2023-09-08T12:47:53;30.20;82.10
3756;DHT22;1893;52.526;13.360;2023-09-08T12:50:20;30.30;80.70
3756;DHT22;1893;52.526;13.360;2023-09-08T12:52:46;30.50;80.60
3756;DHT22;1893;52.526;13.360;2023-09-08T12:55:12;30.50;79.60
3756;DHT22;1893;52.526;13.360;2023-09-08T12:57:38;30.60;82.00
3756;DHT22;1893;52.526;13.360;2023-09-08T13:00:04;30.30;81.30
3756;DHT22;1893;52.526;13.360;2023-09-08T13:02:30;30.50;80.10
3756;DHT22;1893;52.526;13.360;2023-09-08T13:04:55;30.40;80.80
3756;DHT22;1893;52.526;13.360;2023-09-08T13:07:22;30.30;80.30
3756;DHT22;1893;52.526;13.360;2023-09-08T13:09:47;30.40;79.20
3756;DHT22;1893;52.526;13.360;2023-09-08T13:12:13;30.20;79.00
3756;DHT22;1893;52.526;13.360;2023-09-08T13:14:39;30.00;80.50
3756;DHT22;1893;52.526;13.360;2023-09-08T13:17:05;29.80;80.10
3756;DHT22;1893;52.526;13.360;2023-09-08T13:19:34;29.50;78.90
3756;DHT22;1893;52.526;13.360;2023-09-08T13:22:00;29.40;81.40
3756;DHT22;1893;52.526;13.360;2023-09-08T13:24:25;29.40;79.10
3756;DHT22;1893;52.526;13.360;2023-09-08T13:26:51;29.60;79.90
3756;DHT22;1893;52.526;13.360;2023-09-08T13:29:17;29.50;79.80
3756;DHT22;1893;52.526;13.360;2023-09-08T13:31:44;29.50;81.20
3756;DHT22;1893;52.526;13.360;2023-09-08T13:34:09;29.40;80.20
3756;DHT22;1893;52.526;13.360;2023-09-08T13:36:35;29.40;79.90
3756;DHT22;1893;52.526;13.360;2023-09-08T13:39:01;29.40;81.20
3756;DHT22;1893;52.526;13.360;2023-09-08T13:41:52;29.40;81.70
3756;DHT22;1893;52.526;13.360;2023-09-08T13:44:19;29.40;80.50
3756;DHT22;1893;52.526;13.360;2023-09-08T13:46:49;29.30;80.40
3756;DHT22;1893;52.526;13.360;2023-09-08T13:49:16;29.20;80.00
3756;DHT22;1893;52.526;13.360;2023-09-08T13:51:42;29.30;79.70
3756;DHT22;1893;52.526;13.360;2023-09-08T13:54:08;29.40;80.80
3756;DHT22;1893;52.526;13.360;2023-09-08T13:56:34;29.40;78.90
3756;DHT22;1893;52.526;13.360;2023-09-08T13:59:01;29.30;79.00
3756;DHT22;1893;52.526;13.360;2023-09-08T14:01:27;29.30;77.20
3756;DHT22;1893;52.526;13.360;2023-09-08T14:03:57;29.40;79.20
3756;DHT22;1893;52.526;13.360;2023-09-08T14:06:23;29.40;75.70
3756;DHT22;1893;52.526;13.360;2023-09-08T14:08:50;29.40;75.60
3756;DHT22;1893;52.526;13.360;2023-09-08T14:11:15;29.20;77.00
3756;DHT22;1893;52.526;13.360;2023-09-08T14:13:41;29.30;77.90
3756;DHT22;1893;52.526;13.360;2023-09-08T14:16:08;29.30;79.20
3756;DHT22;1893;52.526;13.360;2023-09-08T14:18:34;29.30;76.60
3756;DHT22;1893;52.526;13.360;2023-09-08T14:21:00;29.20;76.10
3756;DHT22;1893;52.526;13.360;2023-09-08T14:23:25;29.10;76.60
3756;DHT22;1893;52.526;13.360;2023-09-08T14:25:51;29.10;77.40
3756;DHT22;1893;52.526;13.360;2023-09-08T14:28:17;29.10;76.20
3756;DHT22;1893;52.526;13.360;2023-09-08T14:30:43;29.10;76.50
3756;DHT22;1893;52.526;13.360;2023-09-08T14:33:10;29.00;76.20
3756;DHT22;1893;52.526;13.360;2023-09-08T14:35:35;29.00;75.70
3756;DHT22;1893;52.526;13.360;2023-09-08T14:38:01;28.90;74.00
3756;DHT22;1893;52.526;13.360;2023-09-08T14:40:27;28.90;74.90
3756;DHT22;1893;52.526;13.360;2023-09-08T14:42:52;29.00;75.20
3756;DHT22;1893;52.526;13.360;2023-09-08T14:45:18;29.00;74.00
3756;DHT22;1893;52.526;13.360;2023-09-08T14:47:43;28.90;73.70
3756;DHT22;1893;52.526;13.360;2023-09-08T14:50:09;28.90;73.10
3756;DHT22;1893;52.526;13.360;2023-09-08T14:52:35;28.80;71.90
3756;DHT22;1893;52.526;13.360;2023-09-08T14:55:00;28.80;71.80
3756;DHT22;1893;52.526;13.360;2023-09-08T14:57:26;28.80;71.70
3756;DHT22;1893;52.526;13.360;2023-09-08T14:59:52;28.90;72.20
3756;DHT22;1893;52.526;13.360;2023-09-08T15:02:21;28.80;72.20
3756;DHT22;1893;52.526;13.360;2023-09-08T15:04:46;28.80;72.10
3756;DHT22;1893;52.526;13.360;2023-09-08T15:07:12;28.80;70.30
3756;DHT22;1893;52.526;13.360;2023-09-08T15:09:38;28.80;72.00
3756;DHT22;1893;52.526;13.360;2023-09-08T15:12:03;28.80;73.40
3756;DHT22;1893;52.526;13.360;2023-09-08T15:14:29;28.80;73.00
3756;DHT22;1893;52.526;13.360;2023-09-08T15:16:55;28.90;72.50
3756;DHT22;1893;52.526;13.360;2023-09-08T15:19:20;28.80;72.60
3756;DHT22;1893;52.526;13.360;2023-09-08T15:21:46;28.90;71.30
3756;DHT22;1893;52.526;13.360;2023-09-08T15:24:12;29.10;71.10
3756;DHT22;1893;52.526;13.360;2023-09-08T15:26:37;29.10;70.00
3756;DHT22;1893;52.526;13.360;2023-09-08T15:29:04;29.30;69.80
3756;DHT22;1893;52.526;13.360;2023-09-08T15:31:30;29.50;69.30
3756;DHT22;1893;52.526;13.360;2023-09-08T15:33:56;29.70;67.00
3756;DHT22;1893;52.526;13.360;2023-09-08T15:36:21;29.90;66.60
3756;DHT22;1893;52.526;13.360;2023-09-08T15:38:47;30.20;67.60
3756;DHT22;1893;52.526;13.360;2023-09-08T15:41:16;30.20;65.70
3756;DHT22;1893;52.526;13.360;2023-09-08T15:43:47;30.40;65.70